createdAt,value
2019-03-23T00:00:37.419Z,29.60
2019-03-23T00:03:06.302Z,29.33
2019-03-23T00:05:35.202Z,31.40
2019-03-23T00:08:04.307Z,27.87
2019-03-23T00:10:33.260Z,30.88
2019-03-23T00:13:02.173Z,28.77
2019-03-23T00:15:31.059Z,25.27
2019-03-23T00:17:59.966Z,30.67
2019-03-23T00:20:28.888Z,22.37
2019-03-23T00:22:57.780Z,29.03
2019-03-23T00:25:26.730Z,28.10
2019-03-23T00:27:55.624Z,30.10
2019-03-23T00:30:24.659Z,27.75
2019-03-23T00:32:53.565Z,31.13
2019-03-23T00:35:22.483Z,28.55
2019-03-23T00:37:51.387Z,30.37
2019-03-23T00:40:20.331Z,29.23
2019-03-23T00:42:49.265Z,30.20
2019-03-23T00:45:18.534Z,29.30
2019-03-23T00:47:47.531Z,24.30
2019-03-23T00:50:16.412Z,23.70
2019-03-23T00:52:45.311Z,30.07
2019-03-23T00:55:14.223Z,27.70
2019-03-23T00:57:43.110Z,29.57
2019-03-23T01:00:12.211Z,22.55
2019-03-23T01:02:41.973Z,29.17
2019-03-23T01:05:11.018Z,28.77
2019-03-23T01:07:40.011Z,26.80
2019-03-23T01:10:09.999Z,28.97
2019-03-23T01:12:39.887Z,27.17
2019-03-23T01:15:09.000Z,29.93
2019-03-23T01:17:37.940Z,27.17
2019-03-23T01:20:08.106Z,25.45
2019-03-23T01:22:37.079Z,27.73
2019-03-23T01:25:06.155Z,28.37
2019-03-23T01:27:35.083Z,25.67
2019-03-23T01:30:04.659Z,27.13
2019-03-23T01:32:33.571Z,24.87
2019-03-23T01:35:02.554Z,24.93
2019-03-23T01:37:32.006Z,27.22
2019-03-23T01:40:00.911Z,28.30
2019-03-23T01:42:29.859Z,29.05
2019-03-23T01:44:58.785Z,23.07
2019-03-23T01:47:27.677Z,26.42
2019-03-23T01:49:56.613Z,24.30
2019-03-23T01:52:25.570Z,24.47
2019-03-23T01:54:54.457Z,23.97
2019-03-23T01:57:23.404Z,25.77
2019-03-23T01:59:52.486Z,26.03
2019-03-23T02:02:21.451Z,28.73
2019-03-23T02:04:50.379Z,29.23
2019-03-23T02:07:19.303Z,27.33
2019-03-23T02:09:48.199Z,27.23
2019-03-23T02:12:18.090Z,24.30
2019-03-23T02:14:46.986Z,26.17
2019-03-23T02:17:15.870Z,26.47
2019-03-23T02:19:44.783Z,25.25
2019-03-23T02:22:13.672Z,26.40
2019-03-23T02:24:43.123Z,22.75
2019-03-23T02:27:12.115Z,26.60
2019-03-23T02:29:41.082Z,25.95
2019-03-23T02:32:10.082Z,26.33
2019-03-23T02:34:38.998Z,29.40
2019-03-23T02:37:07.874Z,24.87
2019-03-23T02:39:36.837Z,26.48
2019-03-23T02:42:05.849Z,24.13
2019-03-23T02:44:34.856Z,23.42
2019-03-23T02:47:03.806Z,25.83
2019-03-23T02:49:32.699Z,27.50
2019-03-23T02:52:02.801Z,25.60
2019-03-23T02:54:31.687Z,25.23
2019-03-23T02:57:00.585Z,25.88
2019-03-23T02:59:29.504Z,28.77
2019-03-23T03:01:58.983Z,38.17
2019-03-23T03:04:27.961Z,27.57
2019-03-23T03:06:56.927Z,26.82
2019-03-23T03:09:26.796Z,26.57
2019-03-23T03:11:55.685Z,45.27
2019-03-23T03:14:24.590Z,29.50
2019-03-23T03:16:54.447Z,28.13
2019-03-23T03:19:23.341Z,29.70
2019-03-23T03:21:52.262Z,28.37
2019-03-23T03:24:21.144Z,29.80
2019-03-23T03:26:50.040Z,28.27
2019-03-23T03:29:19.051Z,28.13
2019-03-23T03:31:47.969Z,28.70
2019-03-23T03:34:17.000Z,30.37
2019-03-23T03:36:45.892Z,26.83
2019-03-23T03:39:15.798Z,29.20
2019-03-23T03:41:44.676Z,31.37
2019-03-23T03:44:13.987Z,28.52
2019-03-23T03:46:42.949Z,29.87
2019-03-23T03:49:13.014Z,28.75
2019-03-23T03:51:42.044Z,27.53
2019-03-23T03:54:10.954Z,27.40
2019-03-23T03:56:40.572Z,28.92
2019-03-23T03:59:09.541Z,29.48
2019-03-23T04:01:38.464Z,28.07
2019-03-23T04:04:07.368Z,29.40
2019-03-23T04:06:36.308Z,28.10
2019-03-23T04:09:06.278Z,30.33
2019-03-23T04:11:35.179Z,27.25
2019-03-23T04:14:04.067Z,28.27
2019-03-23T04:16:32.959Z,26.00
2019-03-23T04:19:01.875Z,27.30
2019-03-23T04:21:35.453Z,31.27
2019-03-23T04:24:04.365Z,28.70
2019-03-23T04:26:33.303Z,28.20
2019-03-23T04:29:02.226Z,27.43
2019-03-23T04:31:31.139Z,27.90
2019-03-23T04:34:00.043Z,28.77
2019-03-23T04:36:29.036Z,26.60
2019-03-23T04:38:57.919Z,24.57
2019-03-23T04:41:26.901Z,28.00
2019-03-23T04:43:55.824Z,28.23
2019-03-23T04:46:24.877Z,25.20
2019-03-23T04:48:53.712Z,23.43
2019-03-23T04:51:22.668Z,25.12
2019-03-23T04:53:51.580Z,26.80
2019-03-23T04:56:20.554Z,26.35
2019-03-23T04:58:49.474Z,27.37
2019-03-23T05:01:18.459Z,25.55
2019-03-23T05:03:47.365Z,23.33
2019-03-23T05:06:16.327Z,26.60
2019-03-23T05:08:45.214Z,25.53
2019-03-23T05:11:14.199Z,26.25
2019-03-23T05:13:43.120Z,28.77
2019-03-23T05:16:12.074Z,26.33
2019-03-23T05:18:40.967Z,23.73
2019-03-23T05:21:10.007Z,27.48
2019-03-23T05:23:39.599Z,26.07
2019-03-23T05:26:08.560Z,29.40
2019-03-23T05:28:37.467Z,27.30
2019-03-23T05:31:07.174Z,26.90
2019-03-23T05:33:36.067Z,25.25
2019-03-23T05:36:04.999Z,27.27
2019-03-23T05:38:44.016Z,26.15
2019-03-23T05:41:04.963Z,26.52
2019-03-23T05:43:33.882Z,24.63
2019-03-23T05:46:03.391Z,26.10
2019-03-23T05:48:32.283Z,26.20
2019-03-23T05:51:01.239Z,27.15
2019-03-23T05:53:30.116Z,26.83
2019-03-23T05:55:59.010Z,25.70
2019-03-23T05:58:27.914Z,19.90
2019-03-23T06:00:56.811Z,26.62
2019-03-23T06:03:25.737Z,25.20
2019-03-23T06:05:54.719Z,27.22
2019-03-23T06:08:23.622Z,27.20
2019-03-23T06:10:52.627Z,29.87
2019-03-23T06:13:21.527Z,28.17
2019-03-23T06:15:50.463Z,29.85
2019-03-23T06:18:19.378Z,27.73
2019-03-23T06:20:48.271Z,25.37
2019-03-23T06:23:17.238Z,28.47
2019-03-23T06:25:46.120Z,27.03
2019-03-23T06:28:15.010Z,27.07
2019-03-23T06:30:43.923Z,27.10
2019-03-23T06:33:12.850Z,27.67
2019-03-23T06:35:42.727Z,27.48
2019-03-23T06:38:11.627Z,27.37
2019-03-23T06:40:40.535Z,27.22
2019-03-23T06:43:09.439Z,30.27
2019-03-23T06:45:38.324Z,27.73
2019-03-23T06:48:07.219Z,29.47
2019-03-23T06:50:36.127Z,24.30
2019-03-23T06:53:05.016Z,28.07
2019-03-23T06:55:33.915Z,29.90
2019-03-23T06:58:02.827Z,29.52
2019-03-23T07:00:31.711Z,30.33
2019-03-23T07:03:00.620Z,28.95
2019-03-23T07:05:29.507Z,33.03
2019-03-23T07:07:58.443Z,31.83
2019-03-23T07:10:27.334Z,29.27
2019-03-23T07:12:56.223Z,31.03
2019-03-23T07:15:25.131Z,28.93
2019-03-23T07:17:54.026Z,29.23
2019-03-23T07:20:22.919Z,29.30
2019-03-23T07:22:51.853Z,27.70
2019-03-23T07:25:20.797Z,30.60
2019-03-23T07:27:49.801Z,33.57
2019-03-23T07:30:18.737Z,28.70
2019-03-23T07:32:47.708Z,30.07
2019-03-23T07:35:16.730Z,32.17
2019-03-23T07:37:45.649Z,26.53
2019-03-23T07:40:14.551Z,29.90
2019-03-23T07:42:43.471Z,9.17
2019-03-23T07:45:12.804Z,9.85
2019-03-23T07:47:41.703Z,9.00
2019-03-23T07:50:11.739Z,10.00
2019-03-23T07:52:40.632Z,10.00
2019-03-23T07:55:10.280Z,10.97
2019-03-23T07:57:39.367Z,11.15
2019-03-23T08:00:08.557Z,11.43
2019-03-23T08:02:37.467Z,10.83
2019-03-23T08:05:06.515Z,10.97
2019-03-23T08:07:35.420Z,11.23
2019-03-23T08:10:04.576Z,12.83
2019-03-23T08:12:34.443Z,11.77
2019-03-23T08:15:03.416Z,11.50
2019-03-23T08:17:32.339Z,11.70
2019-03-23T08:20:01.762Z,12.20
2019-03-23T08:22:30.726Z,12.53
2019-03-23T08:24:59.682Z,12.60
2019-03-23T08:27:28.567Z,12.93
2019-03-23T08:29:57.969Z,12.30
2019-03-23T08:32:26.878Z,13.13
2019-03-23T08:34:58.007Z,12.75
2019-03-23T08:37:26.307Z,12.15
2019-03-23T08:39:55.191Z,13.53
2019-03-23T08:42:24.643Z,26.73
2019-03-23T08:44:53.559Z,28.15
2019-03-23T08:47:22.553Z,29.20
2019-03-23T08:49:52.431Z,26.30
2019-03-23T08:52:21.320Z,19.33
2019-03-23T08:54:50.211Z,26.87
2019-03-23T08:57:19.135Z,30.80
2019-03-23T08:59:48.031Z,31.47
2019-03-23T09:02:16.947Z,31.03
2019-03-23T09:04:45.887Z,27.07
2019-03-23T09:07:14.770Z,24.43
2019-03-23T09:09:43.668Z,27.23
2019-03-23T09:12:12.591Z,30.63
2019-03-23T09:14:41.488Z,25.10
2019-03-23T09:17:10.385Z,28.03
2019-03-23T09:19:39.395Z,30.03
2019-03-23T09:22:08.295Z,22.77
2019-03-23T09:24:37.190Z,28.47
2019-03-23T09:27:06.123Z,27.87
2019-03-23T09:29:35.027Z,28.47
2019-03-23T09:32:03.931Z,25.05
2019-03-23T09:34:32.843Z,22.07
2019-03-23T09:37:01.784Z,25.45
2019-03-23T09:39:30.675Z,24.87
2019-03-23T09:41:59.785Z,26.95
2019-03-23T09:44:28.719Z,22.47
2019-03-23T09:46:57.678Z,26.80
2019-03-23T09:49:26.567Z,27.97
2019-03-23T09:51:55.499Z,25.55
2019-03-23T09:54:24.391Z,24.07
2019-03-23T09:56:53.279Z,26.20
2019-03-23T09:59:22.175Z,24.17
2019-03-23T10:01:51.135Z,23.40
2019-03-23T10:04:20.059Z,24.50
2019-03-23T10:06:48.991Z,24.27
2019-03-23T10:09:17.891Z,22.27
2019-03-23T10:11:46.786Z,18.25
2019-03-23T10:14:15.672Z,26.60
2019-03-23T10:16:44.651Z,21.42
2019-03-23T10:19:13.555Z,24.10
2019-03-23T10:21:42.445Z,25.55
2019-03-23T10:24:11.335Z,25.20
2019-03-23T10:26:40.591Z,27.67
2019-03-23T10:29:09.495Z,16.60
2019-03-23T10:31:38.471Z,16.15
2019-03-23T10:34:07.368Z,25.00
2019-03-23T10:36:36.307Z,25.15
2019-03-23T10:39:06.027Z,26.30
2019-03-23T10:41:34.943Z,23.83
2019-03-23T10:44:03.835Z,28.43
2019-03-23T10:46:32.747Z,23.07
2019-03-23T10:49:01.640Z,25.20
2019-03-23T10:51:30.523Z,25.00
2019-03-23T10:53:59.427Z,26.02
2019-03-23T10:56:28.308Z,22.50
2019-03-23T10:58:57.219Z,25.48
2019-03-23T11:01:26.123Z,10.67
2019-03-23T11:03:55.028Z,9.83
2019-03-23T11:06:23.911Z,10.55
2019-03-23T11:08:52.823Z,11.07
2019-03-23T11:11:21.702Z,11.23
2019-03-23T11:13:50.580Z,11.20
2019-03-23T11:16:19.475Z,10.63
2019-03-23T11:18:48.423Z,10.40
2019-03-23T11:21:17.337Z,10.57
2019-03-23T11:23:46.218Z,10.80
2019-03-23T11:26:15.146Z,10.33
2019-03-23T11:28:44.043Z,11.77
2019-03-23T11:31:12.940Z,10.93
2019-03-23T11:33:41.931Z,12.63
2019-03-23T11:36:10.904Z,11.83
2019-03-23T11:38:39.796Z,11.47
2019-03-23T11:41:08.747Z,11.23
2019-03-23T11:43:37.651Z,11.17
2019-03-23T11:46:06.593Z,11.63
2019-03-23T11:48:35.460Z,11.20
2019-03-23T11:51:04.356Z,11.10
2019-03-23T11:53:33.275Z,10.30
2019-03-23T11:56:02.201Z,10.90
2019-03-23T11:58:31.074Z,10.70
2019-03-23T12:00:59.986Z,11.10
2019-03-23T12:03:28.870Z,11.20
2019-03-23T12:05:57.850Z,11.13
2019-03-23T12:08:26.730Z,10.20
2019-03-23T12:11:02.848Z,10.63
2019-03-23T12:13:26.481Z,10.88
2019-03-23T12:15:55.375Z,11.03
2019-03-23T12:18:24.434Z,11.70
2019-03-23T12:20:53.363Z,10.27
2019-03-23T12:23:22.294Z,11.80
2019-03-23T12:25:51.215Z,10.53
2019-03-23T12:28:20.228Z,10.13
2019-03-23T12:30:49.143Z,10.60
2019-03-23T12:33:18.068Z,11.50
2019-03-23T12:35:46.953Z,11.03
2019-03-23T12:38:15.923Z,10.53
2019-03-23T12:40:44.823Z,10.80
2019-03-23T12:43:13.711Z,9.83
2019-03-23T12:45:42.616Z,9.50
2019-03-23T12:48:12.564Z,11.77
2019-03-23T12:50:41.486Z,12.37
2019-03-23T12:53:10.337Z,9.57
2019-03-23T12:55:39.210Z,10.13
2019-03-23T12:58:08.158Z,10.00
2019-03-23T13:00:37.591Z,12.07
2019-03-23T13:03:07.456Z,22.50
2019-03-23T13:05:36.351Z,23.00
2019-03-23T13:08:06.234Z,22.77
2019-03-23T13:10:35.120Z,24.30
2019-03-23T13:13:04.401Z,22.60
2019-03-23T13:15:33.331Z,23.87
2019-03-23T13:18:03.180Z,21.00
2019-03-23T13:20:32.166Z,19.70
2019-03-23T13:23:01.125Z,23.00
2019-03-23T13:25:30.013Z,21.67
2019-03-23T13:27:58.898Z,20.40
2019-03-23T13:30:27.787Z,21.67
2019-03-23T13:32:56.702Z,21.67
2019-03-23T13:35:25.591Z,21.03
2019-03-23T13:37:54.660Z,21.20
2019-03-23T13:40:23.587Z,21.03
2019-03-23T13:42:52.497Z,17.13
2019-03-23T13:45:21.385Z,19.12
2019-03-23T13:47:50.261Z,19.83
2019-03-23T13:50:25.606Z,20.73
2019-03-23T13:52:54.595Z,19.93
2019-03-23T13:55:31.043Z,19.80
2019-03-23T13:58:10.238Z,16.05
2019-03-23T14:00:39.131Z,21.43
2019-03-23T14:03:08.621Z,22.87
2019-03-23T14:05:37.547Z,22.07
2019-03-23T14:08:06.488Z,21.47
2019-03-23T14:10:35.390Z,20.50
2019-03-23T14:13:04.359Z,20.77
2019-03-23T14:15:33.269Z,21.60
2019-03-23T14:18:03.239Z,18.77
2019-03-23T14:20:32.138Z,19.87
2019-03-23T14:23:02.936Z,18.37
2019-03-23T14:25:31.606Z,15.70
2019-03-23T14:28:00.510Z,17.37
2019-03-23T14:30:29.403Z,18.27
2019-03-23T14:32:58.299Z,17.92
2019-03-23T14:35:27.194Z,17.13
2019-03-23T14:37:56.173Z,16.40
2019-03-23T14:40:25.438Z,15.55
2019-03-23T14:42:54.362Z,15.53
2019-03-23T14:45:23.276Z,15.00
2019-03-23T14:47:52.159Z,16.27
2019-03-23T14:50:21.167Z,17.27
2019-03-23T14:52:50.054Z,17.40
2019-03-23T14:55:19.367Z,15.75
2019-03-23T14:57:48.244Z,16.97
2019-03-23T15:00:20.425Z,16.07
2019-03-23T15:02:49.322Z,10.77
2019-03-23T15:05:18.215Z,15.97
2019-03-23T15:07:47.211Z,16.27
2019-03-23T15:10:16.099Z,15.65
2019-03-23T15:12:45.425Z,15.45
2019-03-23T15:15:14.351Z,16.60
2019-03-23T15:17:48.887Z,16.73
2019-03-23T15:20:13.855Z,11.73
2019-03-23T15:22:42.744Z,12.90
2019-03-23T15:25:12.238Z,14.70
2019-03-23T15:27:41.153Z,14.30
2019-03-23T15:30:10.118Z,15.43
2019-03-23T15:32:39.056Z,11.30
2019-03-23T15:35:08.183Z,14.38
2019-03-23T15:37:37.079Z,13.60
2019-03-23T15:40:06.178Z,14.30
2019-03-23T15:42:36.065Z,12.37
2019-03-23T15:45:06.027Z,13.58
2019-03-23T15:47:34.935Z,13.90
2019-03-23T15:50:03.942Z,12.82
2019-03-23T15:52:32.838Z,11.70
2019-03-23T15:55:03.257Z,13.03
2019-03-23T15:57:32.607Z,13.22
2019-03-23T16:00:01.503Z,11.77
2019-03-23T16:02:31.895Z,11.25
2019-03-23T16:05:00.855Z,10.80
2019-03-23T16:07:29.919Z,10.90
2019-03-23T16:09:59.268Z,11.43
2019-03-23T16:12:34.725Z,10.93
2019-03-23T16:14:58.684Z,10.57
2019-03-23T16:17:27.669Z,8.18
2019-03-23T16:19:56.583Z,7.75
2019-03-23T16:22:25.822Z,10.25
2019-03-23T16:24:54.711Z,7.15
2019-03-23T16:27:23.666Z,10.30
2019-03-23T16:29:52.563Z,8.67
2019-03-23T16:32:21.456Z,8.33
2019-03-23T16:34:50.365Z,8.60
2019-03-23T16:37:20.247Z,9.98
2019-03-23T16:39:49.139Z,7.67
2019-03-23T16:42:18.051Z,8.93
2019-03-23T16:44:46.941Z,8.90
2019-03-23T16:47:15.831Z,9.73
2019-03-23T16:49:45.048Z,8.30
2019-03-23T16:52:14.023Z,5.10
2019-03-23T16:54:42.903Z,4.30
2019-03-23T16:57:11.783Z,3.63
2019-03-23T16:59:40.689Z,6.35
2019-03-23T17:02:09.643Z,6.63
2019-03-23T17:04:38.531Z,7.00
2019-03-23T17:07:07.429Z,7.87
2019-03-23T17:09:36.312Z,6.95
2019-03-23T17:12:05.375Z,4.45
2019-03-23T17:14:34.250Z,6.53
2019-03-23T17:17:03.138Z,7.83
2019-03-23T17:19:32.101Z,7.87
2019-03-23T17:22:01.008Z,5.50
2019-03-23T17:24:30.860Z,9.73
2019-03-23T17:26:59.774Z,7.17
2019-03-23T17:29:28.673Z,9.33
2019-03-23T17:31:57.555Z,6.60
2019-03-23T17:34:26.566Z,7.67
2019-03-23T17:36:55.442Z,9.63
2019-03-23T17:39:24.511Z,8.53
2019-03-23T17:41:53.403Z,9.47
2019-03-23T17:44:23.916Z,9.50
2019-03-23T17:46:53.138Z,9.13
2019-03-23T17:49:22.020Z,7.17
2019-03-23T17:51:50.925Z,9.38
2019-03-23T17:54:20.074Z,9.43
2019-03-23T17:56:50.028Z,7.80
2019-03-23T17:59:18.931Z,8.93
2019-03-23T18:01:47.823Z,8.75
2019-03-23T18:04:17.138Z,9.18
2019-03-23T18:06:46.015Z,8.30
2019-03-23T18:09:15.915Z,5.95
2019-03-23T18:11:44.819Z,7.70
2019-03-23T18:14:13.722Z,5.17
2019-03-23T18:16:43.435Z,5.10
2019-03-23T18:19:13.275Z,6.17
2019-03-23T18:21:42.147Z,4.40
2019-03-23T18:24:11.044Z,4.22
2019-03-23T18:26:39.951Z,5.93
2019-03-23T18:29:09.255Z,5.65
2019-03-23T18:31:38.251Z,6.00
2019-03-23T18:34:07.151Z,5.00
2019-03-23T18:36:36.035Z,4.63
2019-03-23T18:39:05.947Z,4.00
2019-03-23T18:41:34.947Z,3.60
2019-03-23T18:44:03.863Z,3.90
2019-03-23T18:46:33.726Z,2.58
2019-03-23T18:49:02.622Z,3.30
2019-03-23T18:51:31.502Z,3.20
2019-03-23T18:54:00.383Z,3.03
2019-03-23T18:56:29.350Z,2.80
2019-03-23T18:58:58.255Z,3.20
2019-03-23T19:01:27.168Z,2.60
2019-03-23T19:03:56.047Z,2.87
2019-03-23T19:06:24.923Z,2.57
2019-03-23T19:08:53.828Z,2.60
2019-03-23T19:11:23.683Z,2.17
2019-03-23T19:13:52.647Z,1.98
2019-03-23T19:16:21.538Z,2.62
2019-03-23T19:18:50.449Z,3.08
2019-03-23T19:21:19.323Z,3.00
2019-03-23T19:23:48.275Z,2.60
2019-03-23T19:26:17.170Z,2.80
2019-03-23T19:28:46.047Z,2.50
2019-03-23T19:31:14.948Z,2.50
2019-03-23T19:33:43.831Z,2.20
2019-03-23T19:36:12.707Z,2.67
2019-03-23T19:38:41.615Z,2.75
2019-03-23T19:41:10.517Z,2.25
2019-03-23T19:43:48.448Z,1.50
2019-03-23T19:46:09.997Z,2.40
2019-03-23T19:48:38.892Z,2.40
2019-03-23T19:51:07.783Z,2.20
2019-03-23T19:53:36.698Z,2.70
2019-03-23T19:56:05.579Z,2.80
2019-03-23T19:58:34.455Z,3.40
2019-03-23T20:01:03.363Z,2.87
2019-03-23T20:03:32.259Z,2.80
2019-03-23T20:06:01.443Z,2.45
2019-03-23T20:08:30.348Z,2.50
2019-03-23T20:10:59.227Z,3.47
2019-03-23T20:13:29.074Z,2.47
2019-03-23T20:15:57.959Z,3.07
2019-03-23T20:18:27.573Z,2.05
2019-03-23T20:20:56.463Z,2.90
2019-03-23T20:23:25.342Z,2.70
2019-03-23T20:25:54.302Z,2.63
2019-03-23T20:28:23.192Z,3.00
2019-03-23T20:30:52.147Z,2.10
2019-03-23T20:33:21.115Z,2.80
2019-03-23T20:35:51.079Z,3.20
2019-03-23T20:38:19.967Z,3.60
2019-03-23T20:40:49.287Z,2.85
2019-03-23T20:43:18.151Z,3.53
2019-03-23T20:45:47.161Z,3.93
2019-03-23T20:48:16.062Z,3.57
2019-03-23T20:50:45.158Z,4.37
2019-03-23T20:53:15.069Z,3.90
2019-03-23T20:55:43.954Z,3.50
2019-03-23T20:58:13.810Z,3.57
2019-03-23T21:00:42.722Z,3.13
2019-03-23T21:03:11.604Z,3.47
2019-03-23T21:05:40.491Z,3.00
2019-03-23T21:08:09.381Z,2.90
2019-03-23T21:10:38.279Z,3.60
2019-03-23T21:13:07.237Z,2.77
2019-03-23T21:15:36.108Z,2.72
2019-03-23T21:18:05.031Z,3.23
2019-03-23T21:20:33.919Z,3.03
2019-03-23T21:25:28.379Z,2.43
2019-03-23T21:27:57.273Z,2.13
2019-03-23T21:30:26.179Z,2.83
2019-03-23T21:32:55.055Z,2.43
2019-03-23T21:35:23.930Z,2.53
2019-03-23T21:37:52.826Z,1.70
2019-03-23T21:40:21.703Z,3.00
2019-03-23T21:42:50.616Z,2.30
2019-03-23T21:45:19.500Z,3.13
2019-03-23T21:47:48.399Z,2.42
2019-03-23T21:50:17.274Z,2.20
2019-03-23T21:52:46.163Z,2.33
2019-03-23T21:55:15.093Z,2.37
2019-03-23T21:57:43.955Z,3.00
2019-03-23T22:00:14.302Z,1.73
2019-03-23T22:02:43.186Z,2.80
2019-03-23T22:05:12.096Z,2.93
2019-03-23T22:07:41.001Z,2.40
2019-03-23T22:10:09.872Z,2.27
2019-03-23T22:12:38.744Z,2.03
2019-03-23T22:15:07.936Z,2.37
2019-03-23T22:17:36.811Z,2.15
2019-03-23T22:20:06.427Z,2.58
2019-03-23T22:22:35.423Z,1.90
2019-03-23T22:25:04.622Z,1.95
2019-03-23T22:27:33.519Z,2.40
2019-03-23T22:30:02.392Z,2.00
2019-03-23T22:32:31.474Z,2.40
2019-03-23T22:35:00.431Z,2.07
2019-03-23T22:37:29.686Z,2.55
2019-03-23T22:39:58.744Z,2.03
2019-03-23T22:42:27.618Z,1.50
2019-03-23T22:44:56.508Z,3.03
2019-03-23T22:47:25.408Z,2.23
2019-03-23T22:49:54.293Z,2.33
2019-03-23T22:52:23.188Z,2.37
2019-03-23T22:54:52.091Z,3.00
2019-03-23T22:57:20.971Z,1.70
2019-03-23T22:59:49.854Z,2.23
2019-03-23T23:02:18.935Z,2.43
2019-03-23T23:04:47.831Z,2.62
2019-03-23T23:07:16.754Z,1.75
2019-03-23T23:09:45.603Z,2.55
2019-03-23T23:12:14.479Z,1.27
2019-03-23T23:14:44.799Z,2.67
2019-03-23T23:17:13.694Z,2.52
2019-03-23T23:19:42.606Z,2.47
2019-03-23T23:22:11.472Z,1.17
2019-03-23T23:24:40.351Z,2.40
2019-03-23T23:27:09.277Z,2.70
2019-03-23T23:29:38.146Z,1.80
2019-03-23T23:32:07.048Z,2.37
2019-03-23T23:34:36.011Z,1.40
2019-03-23T23:37:04.967Z,2.00
2019-03-23T23:39:33.858Z,1.70
2019-03-23T23:42:02.879Z,1.80
2019-03-23T23:44:31.797Z,2.10
2019-03-23T23:47:00.838Z,1.70
2019-03-23T23:49:29.720Z,2.27
2019-03-23T23:51:58.626Z,3.40
2019-03-23T23:54:27.515Z,3.27
2019-03-23T23:56:57.142Z,3.15
2019-03-23T23:59:27.713Z,1.45
